createdAt,value
2019-05-05T00:02:47.667Z,4.60
2019-05-05T00:05:29.030Z,5.03
2019-05-05T00:07:59.806Z,6.70
2019-05-05T00:10:48.041Z,2.10
2019-05-05T00:13:28.162Z,4.13
2019-05-05T00:16:24.556Z,2.97
2019-05-05T00:18:56.930Z,3.70
2019-05-05T00:21:27.835Z,4.73
2019-05-05T00:23:58.468Z,3.73
2019-05-05T00:26:29.094Z,3.33
2019-05-05T00:28:59.770Z,2.20
2019-05-05T00:31:31.324Z,2.63
2019-05-05T00:34:01.954Z,2.70
2019-05-05T00:36:32.741Z,4.27
2019-05-05T00:39:04.334Z,10.73
2019-05-05T00:41:35.013Z,5.63
2019-05-05T00:44:05.843Z,8.83
2019-05-05T00:46:55.049Z,11.93
2019-05-05T00:49:27.274Z,7.03
2019-05-05T00:51:58.216Z,5.47
2019-05-05T00:54:29.032Z,4.43
2019-05-05T00:57:00.108Z,4.53
2019-05-05T00:59:31.448Z,3.47
2019-05-05T01:02:12.156Z,2.63
2019-05-05T01:04:51.470Z,3.83
2019-05-05T01:07:22.207Z,3.17
2019-05-05T01:09:54.281Z,3.00
2019-05-05T01:12:26.444Z,4.10
2019-05-05T01:14:57.087Z,2.57
2019-05-05T01:17:27.739Z,4.27
2019-05-05T01:20:04.054Z,2.67
2019-05-05T01:22:34.079Z,2.77
2019-05-05T01:25:05.373Z,2.60
2019-05-05T01:27:36.297Z,3.33
2019-05-05T01:30:11.143Z,2.23
2019-05-05T01:32:44.666Z,2.57
2019-05-05T01:35:15.735Z,2.67
2019-05-05T01:38:01.122Z,2.93
2019-05-05T01:40:44.742Z,4.77
2019-05-05T01:43:15.683Z,2.10
2019-05-05T01:45:46.410Z,2.10
2019-05-05T01:48:17.717Z,2.80
2019-05-05T01:50:48.471Z,3.23
2019-05-05T01:53:19.627Z,2.20
2019-05-05T01:55:50.335Z,2.43
2019-05-05T01:58:21.550Z,3.63
2019-05-05T02:00:52.199Z,3.67
2019-05-05T02:03:24.360Z,2.87
2019-05-05T02:05:55.301Z,2.03
2019-05-05T02:08:25.987Z,3.10
2019-05-05T02:10:56.657Z,2.97
2019-05-05T02:13:27.404Z,3.37
2019-05-05T02:15:58.071Z,7.07
2019-05-05T02:18:28.689Z,10.00
2019-05-05T02:21:09.902Z,7.37
2019-05-05T02:23:40.857Z,3.33
2019-05-05T02:26:11.725Z,5.53
2019-05-05T02:28:50.119Z,4.63
2019-05-05T02:31:45.399Z,4.13
2019-05-05T02:34:16.465Z,7.67
2019-05-05T02:36:47.301Z,4.07
2019-05-05T02:39:18.041Z,4.93
2019-05-05T02:41:49.035Z,3.30
2019-05-05T02:44:20.277Z,3.77
2019-05-05T02:47:01.223Z,3.60
2019-05-05T02:49:35.166Z,2.50
2019-05-05T02:52:06.826Z,2.30
2019-05-05T02:54:41.572Z,2.23
2019-05-05T02:57:14.925Z,6.30
2019-05-05T02:59:57.737Z,3.20
2019-05-05T03:02:31.578Z,3.23
2019-05-05T03:05:04.216Z,3.50
2019-05-05T03:07:38.207Z,3.67
2019-05-05T03:10:09.886Z,2.70
2019-05-05T03:12:43.894Z,2.60
2019-05-05T03:15:25.629Z,3.17
2019-05-05T03:17:56.453Z,2.47
2019-05-05T03:20:27.254Z,4.50
2019-05-05T03:22:57.922Z,2.83
2019-05-05T03:25:28.602Z,2.13
2019-05-05T03:27:59.250Z,2.97
2019-05-05T03:30:30.335Z,3.80
2019-05-05T03:33:01.124Z,4.23
2019-05-05T03:35:31.966Z,3.13
2019-05-05T03:38:03.871Z,2.30
2019-05-05T03:40:37.414Z,3.03
2019-05-05T03:43:14.585Z,2.67
2019-05-05T03:45:56.508Z,3.17
2019-05-05T03:48:27.213Z,3.17
2019-05-05T03:50:58.799Z,3.93
2019-05-05T03:53:30.258Z,4.13
2019-05-05T03:56:01.185Z,2.60
2019-05-05T03:58:34.318Z,4.90
2019-05-05T04:01:37.463Z,4.67
2019-05-05T04:04:29.158Z,3.43
2019-05-05T04:06:59.925Z,2.90
2019-05-05T04:09:30.556Z,2.77
2019-05-05T04:12:01.237Z,3.73
2019-05-05T04:14:31.882Z,2.13
2019-05-05T04:17:24.541Z,4.27
2019-05-05T04:19:56.277Z,3.37
2019-05-05T04:22:26.981Z,2.27
2019-05-05T04:25:04.721Z,3.57
2019-05-05T04:27:35.580Z,3.67
2019-05-05T04:30:06.353Z,3.67
2019-05-05T04:32:37.008Z,2.17
2019-05-05T04:35:07.704Z,2.50
2019-05-05T04:37:38.867Z,2.63
2019-05-05T04:40:09.840Z,2.23
2019-05-05T04:42:41.204Z,3.63
2019-05-05T04:45:11.950Z,2.53
2019-05-05T04:47:45.294Z,3.03
2019-05-05T04:50:38.126Z,2.70
2019-05-05T04:53:13.589Z,1.80
2019-05-05T04:55:44.433Z,3.27
2019-05-05T04:58:15.103Z,2.00
2019-05-05T05:00:46.089Z,3.20
2019-05-05T05:03:35.569Z,1.93
2019-05-05T05:06:14.539Z,2.70
2019-05-05T05:08:44.970Z,4.43
2019-05-05T05:11:15.590Z,1.90
2019-05-05T05:13:46.268Z,2.57
2019-05-05T05:16:16.918Z,3.30
2019-05-05T05:18:47.669Z,2.70
2019-05-05T05:21:18.284Z,2.50
2019-05-05T05:23:49.052Z,4.30
2019-05-05T05:26:19.679Z,2.67
2019-05-05T05:28:50.391Z,4.13
2019-05-05T05:31:21.145Z,3.90
2019-05-05T05:33:51.791Z,3.27
2019-05-05T05:36:24.656Z,2.47
2019-05-05T05:38:57.565Z,2.60
2019-05-05T05:41:47.612Z,1.70
2019-05-05T05:44:44.463Z,3.53
2019-05-05T05:47:26.364Z,2.83
2019-05-05T05:50:04.017Z,1.50
2019-05-05T05:52:36.503Z,2.20
2019-05-05T05:55:07.483Z,3.57
2019-05-05T05:57:38.479Z,1.80
2019-05-05T06:00:09.543Z,1.93
2019-05-05T06:02:40.354Z,2.20
2019-05-05T06:05:11.300Z,2.27
2019-05-05T06:07:44.083Z,1.70
2019-05-05T06:10:22.320Z,2.43
2019-05-05T06:12:47.244Z,1.83
2019-05-05T06:15:20.710Z,3.00
2019-05-05T06:17:51.490Z,1.90
2019-05-05T06:20:23.827Z,3.67
2019-05-05T06:22:55.021Z,4.37
2019-05-05T06:25:26.849Z,2.90
2019-05-05T06:27:57.740Z,2.23
2019-05-05T06:30:28.940Z,1.40
2019-05-05T06:33:00.339Z,1.47
2019-05-05T06:35:33.652Z,3.43
2019-05-05T06:38:04.832Z,4.93
2019-05-05T06:40:57.323Z,2.30
2019-05-05T06:43:40.989Z,2.10
2019-05-05T06:46:14.626Z,2.10
2019-05-05T06:48:47.385Z,2.13
2019-05-05T06:51:18.045Z,1.40
2019-05-05T06:53:48.691Z,1.33
2019-05-05T06:56:19.427Z,2.00
2019-05-05T06:58:50.065Z,1.70
2019-05-05T07:01:21.409Z,2.87
2019-05-05T07:03:54.089Z,2.90
2019-05-05T07:06:25.428Z,1.67
2019-05-05T07:08:56.197Z,4.90
2019-05-05T07:11:27.700Z,2.73
2019-05-05T07:13:58.375Z,1.63
2019-05-05T07:16:29.320Z,2.13
2019-05-05T07:19:01.208Z,3.37
2019-05-05T07:21:34.158Z,1.67
2019-05-05T07:24:04.610Z,3.57
2019-05-05T07:26:35.258Z,2.00
2019-05-05T07:29:06.058Z,2.53
2019-05-05T07:31:37.161Z,3.10
2019-05-05T07:34:08.178Z,3.30
2019-05-05T07:36:46.890Z,2.17
2019-05-05T07:39:18.264Z,1.80
2019-05-05T07:41:49.003Z,2.10
2019-05-05T07:44:26.619Z,1.97
2019-05-05T07:46:54.207Z,1.87
2019-05-05T07:49:25.122Z,1.50
2019-05-05T07:51:55.999Z,1.30
2019-05-05T07:54:26.633Z,2.73
2019-05-05T07:56:59.515Z,1.90
2019-05-05T07:59:34.022Z,1.40
2019-05-05T08:02:04.842Z,2.97
2019-05-05T08:04:36.116Z,2.77
2019-05-05T08:07:06.763Z,3.80
2019-05-05T08:09:37.596Z,1.90
2019-05-05T08:12:08.345Z,1.67
2019-05-05T08:14:39.016Z,2.27
2019-05-05T08:17:25.462Z,1.27
2019-05-05T08:20:03.984Z,1.87
2019-05-05T08:22:35.762Z,1.50
2019-05-05T08:25:14.352Z,1.83
2019-05-05T08:28:12.147Z,2.40
2019-05-05T08:31:10.506Z,1.50
2019-05-05T08:33:44.071Z,2.20
2019-05-05T08:36:14.745Z,2.40
2019-05-05T08:38:45.571Z,3.57
2019-05-05T08:41:16.250Z,2.67
2019-05-05T08:43:46.932Z,1.53
2019-05-05T08:46:17.592Z,3.23
2019-05-05T08:48:49.656Z,1.87
2019-05-05T08:51:20.829Z,5.80
2019-05-05T08:53:54.548Z,1.90
2019-05-05T08:56:25.661Z,3.20
2019-05-05T08:58:57.076Z,4.63
2019-05-05T09:01:28.403Z,2.80
2019-05-05T09:03:59.150Z,2.30
2019-05-05T09:06:29.832Z,2.53
2019-05-05T09:09:03.850Z,2.10
2019-05-05T09:11:36.540Z,2.17
2019-05-05T09:14:08.594Z,3.63
2019-05-05T09:16:40.484Z,2.93
2019-05-05T09:19:15.014Z,3.80
2019-05-05T09:21:45.895Z,2.40
2019-05-05T09:24:38.151Z,4.03
2019-05-05T09:27:36.257Z,1.07
2019-05-05T09:30:08.601Z,3.03
2019-05-05T09:32:39.774Z,1.40
2019-05-05T09:35:10.772Z,1.97
2019-05-05T09:37:44.331Z,2.33
2019-05-05T09:40:17.588Z,1.93
2019-05-05T09:42:48.364Z,1.97
2019-05-05T09:45:24.345Z,1.90
2019-05-05T09:47:56.012Z,2.90
2019-05-05T09:50:27.384Z,2.40
2019-05-05T09:52:58.223Z,3.80
2019-05-05T09:55:29.204Z,2.33
2019-05-05T09:58:01.066Z,1.63
2019-05-05T10:00:33.765Z,1.53
2019-05-05T10:03:04.527Z,4.17
2019-05-05T10:05:35.212Z,1.37
2019-05-05T10:08:08.005Z,1.10
2019-05-05T10:10:39.851Z,3.70
2019-05-05T10:13:10.567Z,1.20
2019-05-05T10:15:44.418Z,2.87
2019-05-05T10:18:15.348Z,2.00
2019-05-05T10:20:46.151Z,1.10
2019-05-05T10:23:16.962Z,2.53
2019-05-05T10:25:49.674Z,3.37
2019-05-05T10:28:20.441Z,1.60
2019-05-05T10:30:53.865Z,1.10
2019-05-05T10:33:25.276Z,1.70
2019-05-05T10:35:56.034Z,2.13
2019-05-05T10:38:26.858Z,2.07
2019-05-05T10:40:57.530Z,1.83
2019-05-05T10:43:29.587Z,3.83
2019-05-05T10:46:00.273Z,2.30
2019-05-05T10:48:31.199Z,3.13
2019-05-05T10:51:04.327Z,1.63
2019-05-05T10:53:35.106Z,1.50
2019-05-05T10:56:06.003Z,1.60
2019-05-05T10:58:36.942Z,4.23
2019-05-05T11:01:07.753Z,1.20
2019-05-05T11:03:40.230Z,2.53
2019-05-05T11:06:13.700Z,1.27
2019-05-05T11:08:45.447Z,1.67
2019-05-05T11:11:16.161Z,1.00
2019-05-05T11:13:48.254Z,0.83
2019-05-05T11:16:19.107Z,1.80
2019-05-05T11:18:49.945Z,1.13
2019-05-05T11:21:21.129Z,1.67
2019-05-05T11:23:53.916Z,1.60
2019-05-05T11:26:24.834Z,0.87
2019-05-05T11:28:55.674Z,1.17
2019-05-05T11:31:26.625Z,1.30
2019-05-05T11:34:14.539Z,1.10
2019-05-05T11:36:57.488Z,1.20
2019-05-05T11:39:28.188Z,1.90
2019-05-05T11:41:58.904Z,1.43
2019-05-05T11:44:29.631Z,1.50
2019-05-05T11:47:00.452Z,2.10
2019-05-05T11:49:33.570Z,2.50
2019-05-05T11:52:04.614Z,1.27
2019-05-05T11:54:35.572Z,3.43
2019-05-05T11:57:06.274Z,1.10
2019-05-05T11:59:36.964Z,1.10
2019-05-05T12:02:07.921Z,1.13
2019-05-05T12:04:39.714Z,4.30
2019-05-05T12:07:10.502Z,1.60
2019-05-05T12:09:54.737Z,3.43
2019-05-05T12:12:25.189Z,0.90
2019-05-05T12:14:55.991Z,3.33
2019-05-05T12:17:37.844Z,0.97
2019-05-05T12:20:13.525Z,2.97
2019-05-05T12:22:44.870Z,1.77
2019-05-05T12:25:34.870Z,1.23
2019-05-05T12:28:14.742Z,1.87
2019-05-05T12:30:45.947Z,2.80
2019-05-05T12:33:16.720Z,1.10
2019-05-05T12:35:47.877Z,3.07
2019-05-05T12:38:18.530Z,1.37
2019-05-05T12:40:49.957Z,3.13
2019-05-05T12:43:20.604Z,1.90
2019-05-05T12:45:57.295Z,0.80
2019-05-05T12:48:34.372Z,4.50
2019-05-05T12:51:06.126Z,1.07
2019-05-05T12:53:36.905Z,1.80
2019-05-05T12:56:08.060Z,1.90
2019-05-05T12:58:39.629Z,1.37
2019-05-05T13:01:33.583Z,2.07
2019-05-05T13:04:05.777Z,1.13
2019-05-05T13:06:40.755Z,1.47
2019-05-05T13:09:13.555Z,2.33
2019-05-05T13:11:44.585Z,1.10
2019-05-05T13:14:15.642Z,3.03
2019-05-05T13:16:52.918Z,1.03
2019-05-05T13:19:28.383Z,1.83
2019-05-05T13:22:16.575Z,1.63
2019-05-05T13:25:04.724Z,2.67
2019-05-05T13:27:38.611Z,2.13
2019-05-05T13:30:11.344Z,5.03
2019-05-05T13:32:44.065Z,1.03
2019-05-05T13:35:16.012Z,1.80
2019-05-05T13:37:48.406Z,1.10
2019-05-05T13:40:19.486Z,0.93
2019-05-05T13:42:50.505Z,1.13
2019-05-05T13:45:43.615Z,2.90
2019-05-05T13:48:14.383Z,1.80
2019-05-05T13:50:49.186Z,1.53
2019-05-05T13:53:21.099Z,3.73
2019-05-05T13:55:55.550Z,2.77
2019-05-05T13:58:24.960Z,3.50
2019-05-05T14:00:56.772Z,2.73
2019-05-05T14:03:27.989Z,2.00
2019-05-05T14:05:58.738Z,1.57
2019-05-05T14:08:35.598Z,1.20
2019-05-05T14:11:03.737Z,1.93
2019-05-05T14:13:34.460Z,1.47
2019-05-05T14:16:06.302Z,2.33
2019-05-05T14:18:37.231Z,1.00
2019-05-05T14:21:07.901Z,1.97
2019-05-05T14:23:58.488Z,3.10
2019-05-05T14:26:37.994Z,1.67
2019-05-05T14:29:11.027Z,1.93
2019-05-05T14:31:44.319Z,3.80
2019-05-05T14:34:23.999Z,1.87
2019-05-05T14:37:14.170Z,1.20
2019-05-05T14:39:45.204Z,1.20
2019-05-05T14:42:15.995Z,1.27
2019-05-05T14:44:46.735Z,2.87
2019-05-05T14:47:17.391Z,3.27
2019-05-05T14:49:48.209Z,1.93
2019-05-05T14:52:18.995Z,2.30
2019-05-05T14:54:49.736Z,3.57
2019-05-05T14:57:24.516Z,2.57
2019-05-05T14:59:56.359Z,1.83
2019-05-05T15:02:27.392Z,2.00
2019-05-05T15:05:00.827Z,1.43
2019-05-05T15:07:56.702Z,2.33
2019-05-05T15:10:45.045Z,2.07
2019-05-05T15:13:15.742Z,4.93
2019-05-05T15:15:46.613Z,2.17
2019-05-05T15:18:17.297Z,3.83
2019-05-05T15:20:48.080Z,1.73
2019-05-05T15:23:18.937Z,2.53
2019-05-05T15:25:49.622Z,1.40
2019-05-05T15:28:20.257Z,1.77
2019-05-05T15:30:50.960Z,2.97
2019-05-05T15:33:21.598Z,2.87
2019-05-05T15:35:53.897Z,2.00
2019-05-05T15:38:24.754Z,2.23
2019-05-05T15:40:56.247Z,2.30
2019-05-05T15:43:26.963Z,6.03
2019-05-05T15:45:58.416Z,3.13
2019-05-05T15:48:29.092Z,2.40
2019-05-05T15:50:59.847Z,3.80
2019-05-05T15:53:30.739Z,3.27
2019-05-05T15:56:01.535Z,1.93
2019-05-05T15:58:34.090Z,1.90
2019-05-05T16:01:04.816Z,4.33
2019-05-05T16:03:36.530Z,1.17
2019-05-05T16:06:07.208Z,1.57
2019-05-05T16:08:38.354Z,1.90
2019-05-05T16:11:10.093Z,1.70
2019-05-05T16:13:41.643Z,2.53
2019-05-05T16:16:34.311Z,3.40
2019-05-05T16:19:13.895Z,3.83
2019-05-05T16:21:54.382Z,1.77
2019-05-05T16:24:28.200Z,3.83
2019-05-05T16:26:59.924Z,2.13
2019-05-05T16:29:30.637Z,3.73
2019-05-05T16:32:04.187Z,2.80
2019-05-05T16:34:34.637Z,2.37
2019-05-05T16:37:05.473Z,3.67
2019-05-05T16:39:36.304Z,9.47
2019-05-05T16:42:08.002Z,3.97
2019-05-05T16:44:39.816Z,3.67
2019-05-05T16:47:10.604Z,2.80
2019-05-05T16:49:41.737Z,2.60
2019-05-05T16:52:19.130Z,1.40
2019-05-05T16:55:18.114Z,2.33
2019-05-05T16:57:48.946Z,2.20
2019-05-05T17:00:25.686Z,2.33
2019-05-05T17:02:55.846Z,3.07
2019-05-05T17:05:27.608Z,4.40
2019-05-05T17:08:01.600Z,1.40
2019-05-05T17:10:34.227Z,1.83
2019-05-05T17:13:18.213Z,3.63
2019-05-05T17:16:00.679Z,3.47
2019-05-05T17:18:36.491Z,1.50
2019-05-05T17:21:15.188Z,2.60
2019-05-05T17:23:45.974Z,3.27
2019-05-05T17:26:16.680Z,3.37
2019-05-05T17:28:47.562Z,3.87
2019-05-05T17:31:18.287Z,2.20
2019-05-05T17:33:48.969Z,2.10
2019-05-05T17:36:19.791Z,1.57
2019-05-05T17:38:50.662Z,2.23
2019-05-05T17:41:38.714Z,2.10
2019-05-05T17:44:26.236Z,1.30
2019-05-05T17:47:05.406Z,2.50
2019-05-05T17:49:38.285Z,1.73
2019-05-05T17:52:34.349Z,3.93
2019-05-05T17:55:24.260Z,3.13
2019-05-05T17:58:01.546Z,1.93
2019-05-05T18:00:29.972Z,4.20
2019-05-05T18:03:04.184Z,3.13
2019-05-05T18:05:54.320Z,3.17
2019-05-05T18:08:46.618Z,2.07
2019-05-05T18:11:29.544Z,1.47
2019-05-05T18:14:04.886Z,1.60
2019-05-05T18:16:35.610Z,1.60
2019-05-05T18:19:06.417Z,1.73
2019-05-05T18:21:37.462Z,2.03
2019-05-05T18:24:08.351Z,4.97
2019-05-05T18:26:43.569Z,8.57
2019-05-05T18:29:14.591Z,11.13
2019-05-05T18:31:45.598Z,10.50
2019-05-05T18:34:16.392Z,5.93
2019-05-05T18:36:48.047Z,3.70
2019-05-05T18:39:21.799Z,4.60
2019-05-05T18:42:13.944Z,8.53
2019-05-05T18:44:50.618Z,6.60
2019-05-05T18:47:26.146Z,5.53
2019-05-05T18:49:56.986Z,4.57
2019-05-05T18:52:27.660Z,31.67
2019-05-05T18:54:58.415Z,17.90
2019-05-05T18:57:29.069Z,21.33
2019-05-05T18:59:59.831Z,57.57
2019-05-05T19:02:53.577Z,41.97
2019-05-05T19:05:54.928Z,27.00
2019-05-05T19:08:29.648Z,35.20
2019-05-05T19:11:00.358Z,34.80
2019-05-05T19:13:38.891Z,26.57
2019-05-05T19:16:10.209Z,23.53
2019-05-05T19:18:42.028Z,25.87
2019-05-05T19:21:38.991Z,24.73
2019-05-05T19:24:14.467Z,18.97
2019-05-05T19:26:45.304Z,14.77
2019-05-05T19:29:16.291Z,14.13
2019-05-05T19:31:47.473Z,9.33
2019-05-05T19:34:18.188Z,11.93
2019-05-05T19:36:48.899Z,8.87
2019-05-05T19:39:19.802Z,7.73
2019-05-05T19:41:50.575Z,5.73
2019-05-05T19:44:21.290Z,3.13
2019-05-05T19:47:00.316Z,2.80
2019-05-05T19:49:31.108Z,3.73
2019-05-05T19:52:05.661Z,3.50
2019-05-05T19:54:36.329Z,2.77
2019-05-05T19:57:06.930Z,5.50
2019-05-05T19:59:37.645Z,3.20
2019-05-05T20:02:08.606Z,2.50
2019-05-05T20:04:39.821Z,3.07
2019-05-05T20:07:10.565Z,4.80
2019-05-05T20:09:43.556Z,5.63
2019-05-05T20:12:14.837Z,2.40
2019-05-05T20:14:46.973Z,3.10
2019-05-05T20:17:30.073Z,5.27
2019-05-05T20:20:04.313Z,2.20
2019-05-05T20:22:35.828Z,2.77
2019-05-05T20:25:07.188Z,4.90
2019-05-05T20:27:38.370Z,4.03
2019-05-05T20:30:09.387Z,1.93
2019-05-05T20:32:56.449Z,2.93
2019-05-05T20:35:46.373Z,3.27
2019-05-05T20:38:39.751Z,3.20
2019-05-05T20:41:16.760Z,2.87
2019-05-05T20:43:47.434Z,3.63
2019-05-05T20:46:19.045Z,4.50
2019-05-05T20:48:49.850Z,2.17
2019-05-05T20:51:20.639Z,2.33
2019-05-05T20:53:51.345Z,2.60
2019-05-05T20:56:22.115Z,2.60
2019-05-05T20:58:54.736Z,4.53
2019-05-05T21:01:26.675Z,4.00
2019-05-05T21:03:57.450Z,2.93
2019-05-05T21:06:28.985Z,4.07
2019-05-05T21:08:59.720Z,2.10
2019-05-05T21:11:30.801Z,7.00
2019-05-05T21:14:03.759Z,3.33
2019-05-05T21:16:34.327Z,5.60
2019-05-05T21:19:05.142Z,3.37
2019-05-05T21:21:37.608Z,3.50
2019-05-05T21:24:10.272Z,3.00
2019-05-05T21:26:50.952Z,2.77
2019-05-05T21:29:23.608Z,2.87
2019-05-05T21:31:54.969Z,4.57
2019-05-05T21:34:25.671Z,3.00
2019-05-05T21:36:57.428Z,2.67
2019-05-05T21:39:28.693Z,3.97
2019-05-05T21:41:59.313Z,4.60
2019-05-05T21:44:30.051Z,3.60
2019-05-05T21:47:01.318Z,4.87
2019-05-05T21:49:33.799Z,2.70
2019-05-05T21:52:23.884Z,2.50
2019-05-05T21:54:58.657Z,2.83
2019-05-05T21:57:46.887Z,3.50
2019-05-05T22:00:39.717Z,4.77
2019-05-05T22:03:11.578Z,3.20
2019-05-05T22:05:42.250Z,5.87
2019-05-05T22:08:14.365Z,3.37
2019-05-05T22:10:45.139Z,2.37
2019-05-05T22:13:15.788Z,3.87
2019-05-05T22:15:46.502Z,2.47
2019-05-05T22:18:17.141Z,3.67
2019-05-05T22:20:54.622Z,3.03
2019-05-05T22:23:25.337Z,2.70
2019-05-05T22:25:56.060Z,2.60
2019-05-05T22:28:26.695Z,3.30
2019-05-05T22:30:57.575Z,2.63
2019-05-05T22:33:28.204Z,1.93
2019-05-05T22:35:58.899Z,3.93
2019-05-05T22:38:29.584Z,2.97
2019-05-05T22:41:00.289Z,3.27
2019-05-05T22:43:30.976Z,3.17
2019-05-05T22:46:03.557Z,3.17
2019-05-05T22:48:34.623Z,2.73
2019-05-05T22:51:05.427Z,2.40
2019-05-05T22:53:36.088Z,2.90
2019-05-05T22:56:06.785Z,4.47
2019-05-05T22:58:37.672Z,2.50
2019-05-05T23:01:08.454Z,3.50
2019-05-05T23:03:46.968Z,3.13
2019-05-05T23:06:20.444Z,3.77
2019-05-05T23:08:51.080Z,3.57
2019-05-05T23:11:23.907Z,5.00
2019-05-05T23:14:16.133Z,3.03
2019-05-05T23:16:48.836Z,3.70
2019-05-05T23:19:20.087Z,3.60
2019-05-05T23:22:09.606Z,3.43
2019-05-05T23:24:54.904Z,4.80
2019-05-05T23:27:44.074Z,3.20
2019-05-05T23:30:15.982Z,3.33
2019-05-05T23:32:47.679Z,5.13
2019-05-05T23:35:19.747Z,3.37
2019-05-05T23:37:50.463Z,5.97
2019-05-05T23:40:27.071Z,3.70
2019-05-05T23:42:57.781Z,3.23
2019-05-05T23:45:29.213Z,5.00
2019-05-05T23:47:59.887Z,2.20
2019-05-05T23:50:30.534Z,3.13
2019-05-05T23:53:01.187Z,2.60
2019-05-05T23:55:31.815Z,2.70
2019-05-05T23:58:03.783Z,3.07
